Ana Sayfa
METAR-TAF:

METAR-TAF

Havaalanları :

Kobe Havalimanı

Kobe, Japonya

Enlem: 34-37-58N, Boylam: 135-13-26E, yükseklik: 7 m

Güncel hava durumu gözlemi

Rapor saat 13:00 UTC de 2 saat ve 8 dakika önce yapıldı.
Rüzgar batı/güneybatıdan 6 kt
Sıcaklık 23°C
Nem 94%
Basınç 1012 hPa
Görüş mesafesi 10 km veya daha fazla
2000 ft yükseklikte az bulutlu
15000 ft yükseklikte parçalı çok bulutlu

METAR: RJBE 251300Z 25006KT 9999 FEW020 BKN150 23/22 Q1012

Saat: 00:08 (15:08 UTC)


TAF: eksik

4.000'den fazla havaalanı için hava durumu gözlemleri ve tahminleri (METAR ve TAF raporları).

Kullanılabilir istasyonlar harita üzerinde sarı ve kırmızı noktalarla gösterilir.

İstasyonun adını görmek için fareyi noktanın üzerinde gezdirin.

Sonrasında hava gözlem ve tahminlerini görmek için tıklayın.

Haritayı değiştirmek için: yaklaştırmak için siyah artı işaretli yeşil düğmeye ve uzaklaştırmak için de eksi işaretli düğmeye hızla tıklayın; bitişik haritalar için yeşil okları kullanın.


METAR-TAF: